CheckWX is a tool to help pilots better visualize weather data.  It is not intended as a substitute for an official pre-flight weather briefing.

04:35:13 UTC

KMCC TAF
Mc Clellan Airfield Airport
Sacramento, California, USA
KMCC 262320Z 2700/2724 19014KT P6SM SKC FM270600 16006KT P6SM SKC FM271900 20007KT P6SM SKC

Jun-27@
00:00 UTC

Jun-27 @ 00:00 UTC

Jun-27@
06:00 UTC

Jun-27 @ 06:00 UTC

KMCC 262320Z 2700/2724 19014KT P6SM SKC
Wind
  • 190° at 14 KTS
Cloud Levels
  • Clear skies

Jun-27@
06:00 UTC

Jun-27 @ 06:00 UTC

Jun-27@
19:00 UTC

Jun-27 @ 19:00 UTC

FM270600 16006KT P6SM SKC

From

From Standard forecast or significant change

Wind
  • 160° at 6 KTS
Cloud Levels
  • Clear skies

Jun-27@
19:00 UTC

Jun-27 @ 19:00 UTC

Jun-28@
00:00 UTC

Jun-28 @ 00:00 UTC

FM271900 20007KT P6SM SKC

From

From Standard forecast or significant change

Wind
  • 200° at 7 KTS
Cloud Levels
  • Clear skies